sensor_id;sensor_type;location;lat;lon;timestamp;P1;durP1;ratioP1;P2;durP2;ratioP2
73104;SDS011;61296;50.526;30.792;2023-03-01T00:03:31;19.55;;;7.15;;
73104;SDS011;61296;50.526;30.792;2023-03-01T00:18:51;15.45;;;6.97;;
73104;SDS011;61296;50.526;30.792;2023-03-01T00:34:11;16.40;;;7.38;;
73104;SDS011;61296;50.526;30.792;2023-03-01T00:49:31;18.05;;;7.65;;
73104;SDS011;61296;50.526;30.792;2023-03-01T01:04:51;15.95;;;7.60;;
73104;SDS011;61296;50.526;30.792;2023-03-01T01:20:11;17.08;;;7.25;;
73104;SDS011;61296;50.526;30.792;2023-03-01T01:35:30;14.23;;;7.00;;
73104;SDS011;61296;50.526;30.792;2023-03-01T01:50:53;17.55;;;7.20;;
73104;SDS011;61296;50.526;30.792;2023-03-01T02:06:23;17.97;;;7.40;;
73104;SDS011;61296;50.526;30.792;2023-03-01T02:37:40;19.73;;;7.60;;
73104;SDS011;61296;50.526;30.792;2023-03-01T02:53:08;19.85;;;7.80;;
73104;SDS011;61296;50.526;30.792;2023-03-01T03:08:34;21.30;;;8.57;;
73104;SDS011;61296;50.526;30.792;2023-03-01T03:23:53;22.58;;;7.53;;
73104;SDS011;61296;50.526;30.792;2023-03-01T03:39:12;20.08;;;7.88;;
73104;SDS011;61296;50.526;30.792;2023-03-01T03:54:31;17.08;;;7.53;;
73104;SDS011;61296;50.526;30.792;2023-03-01T04:09:50;19.02;;;7.97;;
73104;SDS011;61296;50.526;30.792;2023-03-01T04:25:10;18.08;;;7.85;;
73104;SDS011;61296;50.526;30.792;2023-03-01T04:40:32;21.42;;;8.48;;
73104;SDS011;61296;50.526;30.792;2023-03-01T04:55:53;22.75;;;9.10;;
73104;SDS011;61296;50.526;30.792;2023-03-01T05:11:13;22.88;;;9.00;;
73104;SDS011;61296;50.526;30.792;2023-03-01T05:26:32;21.27;;;9.15;;
73104;SDS011;61296;50.526;30.792;2023-03-01T05:41:53;21.48;;;9.82;;
73104;SDS011;61296;50.526;30.792;2023-03-01T05:57:16;21.40;;;9.13;;
73104;SDS011;61296;50.526;30.792;2023-03-01T06:12:36;23.00;;;8.93;;
73104;SDS011;61296;50.526;30.792;2023-03-01T06:27:56;19.75;;;8.65;;
73104;SDS011;61296;50.526;30.792;2023-03-01T06:43:15;24.15;;;10.38;;
73104;SDS011;61296;50.526;30.792;2023-03-01T06:58:34;19.90;;;8.57;;
73104;SDS011;61296;50.526;30.792;2023-03-01T07:13:54;22.02;;;8.85;;
73104;SDS011;61296;50.526;30.792;2023-03-01T07:29:14;19.83;;;8.10;;
73104;SDS011;61296;50.526;30.792;2023-03-01T07:44:34;22.75;;;10.00;;
73104;SDS011;61296;50.526;30.792;2023-03-01T07:59:53;22.98;;;9.50;;
73104;SDS011;61296;50.526;30.792;2023-03-01T08:15:12;18.60;;;8.00;;
73104;SDS011;61296;50.526;30.792;2023-03-01T08:30:32;13.98;;;7.13;;
73104;SDS011;61296;50.526;30.792;2023-03-01T08:45:51;16.27;;;6.90;;
73104;SDS011;61296;50.526;30.792;2023-03-01T09:01:12;18.85;;;7.35;;
73104;SDS011;61296;50.526;30.792;2023-03-01T09:16:34;16.40;;;7.45;;
73104;SDS011;61296;50.526;30.792;2023-03-01T09:31:54;20.52;;;7.40;;
73104;SDS011;61296;50.526;30.792;2023-03-01T09:47:18;20.88;;;7.68;;
73104;SDS011;61296;50.526;30.792;2023-03-01T10:18:21;18.23;;;7.68;;
73104;SDS011;61296;50.526;30.792;2023-03-01T10:33:46;27.35;;;9.45;;
73104;SDS011;61296;50.526;30.792;2023-03-01T11:04:39;15.35;;;6.78;;
73104;SDS011;61296;50.526;30.792;2023-03-01T11:20:20;19.58;;;8.20;;
73104;SDS011;61296;50.526;30.792;2023-03-01T11:35:44;14.00;;;6.97;;
73104;SDS011;61296;50.526;30.792;2023-03-01T11:51:19;14.93;;;6.95;;
73104;SDS011;61296;50.526;30.792;2023-03-01T12:07:00;18.88;;;7.85;;
73104;SDS011;61296;50.526;30.792;2023-03-01T12:54:25;17.17;;;7.45;;
73104;SDS011;61296;50.526;30.792;2023-03-01T13:25:17;17.23;;;8.35;;
73104;SDS011;61296;50.526;30.792;2023-03-01T13:56:13;16.85;;;6.82;;
73104;SDS011;61296;50.526;30.792;2023-03-01T14:27:14;7.60;;;3.95;;
73104;SDS011;61296;50.526;30.792;2023-03-01T14:42:35;12.27;;;4.25;;
73104;SDS011;61296;50.526;30.792;2023-03-01T14:57:56;26.95;;;8.32;;
73104;SDS011;61296;50.526;30.792;2023-03-01T15:13:24;6.68;;;3.22;;
73104;SDS011;61296;50.526;30.792;2023-03-01T15:28:49;7.95;;;4.15;;
73104;SDS011;61296;50.526;30.792;2023-03-01T15:44:14;13.63;;;5.80;;
73104;SDS011;61296;50.526;30.792;2023-03-01T15:59:45;16.25;;;6.57;;
73104;SDS011;61296;50.526;30.792;2023-03-01T16:15:07;22.13;;;7.97;;
73104;SDS011;61296;50.526;30.792;2023-03-01T16:30:45;14.95;;;6.05;;
73104;SDS011;61296;50.526;30.792;2023-03-01T16:46:28;25.27;;;7.25;;
73104;SDS011;61296;50.526;30.792;2023-03-01T17:01:47;17.30;;;6.10;;
73104;SDS011;61296;50.526;30.792;2023-03-01T17:17:10;14.25;;;5.88;;
73104;SDS011;61296;50.526;30.792;2023-03-01T17:32:38;21.73;;;7.13;;
73104;SDS011;61296;50.526;30.792;2023-03-01T17:47:58;19.15;;;6.95;;
73104;SDS011;61296;50.526;30.792;2023-03-01T18:03:22;13.15;;;5.40;;
73104;SDS011;61296;50.526;30.792;2023-03-01T18:18:45;13.30;;;5.72;;
73104;SDS011;61296;50.526;30.792;2023-03-01T18:34:05;12.70;;;4.53;;
73104;SDS011;61296;50.526;30.792;2023-03-01T18:49:27;13.23;;;5.40;;
73104;SDS011;61296;50.526;30.792;2023-03-01T19:04:49;13.07;;;5.07;;
73104;SDS011;61296;50.526;30.792;2023-03-01T19:20:09;15.55;;;5.47;;
73104;SDS011;61296;50.526;30.792;2023-03-01T19:35:29;12.48;;;4.53;;
73104;SDS011;61296;50.526;30.792;2023-03-01T19:50:50;12.90;;;4.70;;
73104;SDS011;61296;50.526;30.792;2023-03-01T20:06:19;12.32;;;4.55;;
73104;SDS011;61296;50.526;30.792;2023-03-01T20:21:39;11.00;;;5.22;;
73104;SDS011;61296;50.526;30.792;2023-03-01T20:37:03;11.10;;;5.13;;
73104;SDS011;61296;50.526;30.792;2023-03-01T20:52:22;10.73;;;5.10;;
73104;SDS011;61296;50.526;30.792;2023-03-01T21:07:42;10.35;;;4.10;;
73104;SDS011;61296;50.526;30.792;2023-03-01T21:23:02;10.35;;;3.33;;
73104;SDS011;61296;50.526;30.792;2023-03-01T21:38:21;12.38;;;3.67;;
73104;SDS011;61296;50.526;30.792;2023-03-01T21:53:41;9.07;;;3.20;;
73104;SDS011;61296;50.526;30.792;2023-03-01T22:09:05;5.63;;;2.60;;
73104;SDS011;61296;50.526;30.792;2023-03-01T22:24:26;9.77;;;2.93;;
73104;SDS011;61296;50.526;30.792;2023-03-01T22:39:46;7.00;;;2.70;;
73104;SDS011;61296;50.526;30.792;2023-03-01T22:55:06;6.13;;;2.95;;
73104;SDS011;61296;50.526;30.792;2023-03-01T23:10:26;7.65;;;3.05;;
73104;SDS011;61296;50.526;30.792;2023-03-01T23:25:55;7.97;;;3.15;;
73104;SDS011;61296;50.526;30.792;2023-03-01T23:41:16;8.57;;;3.50;;
73104;SDS011;61296;50.526;30.792;2023-03-01T23:56:39;7.72;;;3.58;;
